Time;durP1;ratioP1;P1;durP2;ratioP2;P2;SDS_P1;SDS_P2;PMS_P1;PMS_P2;Temp;Humidity;BMP_temperature;BMP_pressure;BME280_temperature;BME280_humidity;BME280_pressure;Samples;Min_cycle;Max_cycle;Signal;HPM_P1;HPM_P2
2021/10/07 00:01:51;;;;;;;;;;;;;;;7.43;72.36;102313.50;1929363;74;20118;-61
2021/10/07 00:04:18;;;;;;;;;;;;;;;7.43;72.39;102318.33;1929357;74;20152;-60
2021/10/07 00:06:46;;;;;;;;;;;;;;;7.44;72.44;102325.74;1929269;74;20118;-61
2021/10/07 00:09:14;;;;;;;;;;;;;;;7.43;72.49;102321.36;1929274;74;20152;-60
2021/10/07 00:11:47;;;;;;;;;;;;;;;7.42;72.42;102323.12;1929258;74;20122;-60
2021/10/07 00:14:11;;;;;;;;;;;;;;;7.41;72.48;102317.87;1927786;74;20102;-62
2021/10/07 00:16:39;;;;;;;;;;;;;;;7.41;72.48;102325.73;1929305;74;20169;-62
2021/10/07 00:19:07;;;;;;;;;;;;;;;7.38;72.63;102324.00;1929319;74;20102;-62
2021/10/07 00:21:35;;;;;;;;;;;;;;;7.40;72.65;102321.38;1929297;74;20110;-61
2021/10/07 00:24:11;;;;;;;;;;;;;;;7.40;72.73;102317.45;1929454;74;20110;-62
2021/10/07 00:26:40;;;;;;;;;;;;;;;7.39;72.70;102316.55;1929334;74;20381;-62
2021/10/07 00:32:03;;;;;;;;;;;;;;;7.38;72.91;102317.86;1929257;74;20114;-62
2021/10/07 00:35:18;;;;;;;;;;;;;;;7.38;73.00;102310.00;1926520;74;20148;-62
2021/10/07 00:37:04;;;;;;;;;;;;;;;7.37;73.13;102311.75;1901142;74;20102;-62
2021/10/07 00:39:29;;;;;;;;;;;;;;;7.37;73.25;102309.58;1928612;74;20118;-61
2021/10/07 00:41:57;;;;;;;;;;;;;;;7.35;73.31;102302.58;1929334;74;20152;-61
2021/10/07 00:44:26;;;;;;;;;;;;;;;7.34;73.54;102299.54;1929241;73;20122;-62
2021/10/07 00:46:59;;;;;;;;;;;;;;;7.32;73.40;102298.67;1928813;74;20193;-62
2021/10/07 00:49:28;;;;;;;;;;;;;;;7.32;73.48;102302.60;1929385;74;20145;-62
2021/10/07 00:51:57;;;;;;;;;;;;;;;7.33;73.64;102296.91;1929449;74;20145;-61
2021/10/07 00:54:26;;;;;;;;;;;;;;;7.32;73.55;102296.05;1929325;74;20361;-62
2021/10/07 00:56:55;;;;;;;;;;;;;;;7.32;73.76;102293.43;1929267;74;20110;-64
2021/10/07 00:59:23;;;;;;;;;;;;;;;7.32;73.92;102299.98;1929473;74;20105;-63
2021/10/07 01:01:51;;;;;;;;;;;;;;;7.31;73.88;102295.60;1929339;73;20126;-61
2021/10/07 01:04:18;;;;;;;;;;;;;;;7.31;73.84;102291.67;1929268;74;20118;-62
2021/10/07 01:06:47;;;;;;;;;;;;;;;7.31;73.90;102289.05;1929282;74;20530;-61
2021/10/07 01:09:17;;;;;;;;;;;;;;;7.31;74.18;102298.22;1929309;74;20101;-62
2021/10/07 01:11:44;;;;;;;;;;;;;;;7.31;74.19;102303.46;1929196;74;20154;-62
2021/10/07 01:14:12;;;;;;;;;;;;;;;7.31;74.23;102295.60;1929280;74;20114;-62
2021/10/07 01:16:40;;;;;;;;;;;;;;;7.30;74.28;102297.80;1929290;74;20158;-62
2021/10/07 01:19:08;;;;;;;;;;;;;;;7.29;74.36;102298.66;1929345;74;20118;-61
2021/10/07 01:21:36;;;;;;;;;;;;;;;7.29;74.25;102293.87;1929309;74;20114;-62
2021/10/07 01:24:04;;;;;;;;;;;;;;;7.28;74.40;102298.66;1929254;73;20118;-62
2021/10/07 01:26:32;;;;;;;;;;;;;;;7.28;74.43;102296.90;1929522;74;20172;-62
2021/10/07 01:29:00;;;;;;;;;;;;;;;7.28;74.49;102300.83;1929295;74;20153;-61
2021/10/07 01:31:28;;;;;;;;;;;;;;;7.28;74.52;102294.28;1929244;74;20110;-62
2021/10/07 01:33:56;;;;;;;;;;;;;;;7.28;74.53;102299.52;1929311;74;20122;-63
2021/10/07 01:36:24;;;;;;;;;;;;;;;7.28;74.61;102302.14;1929309;74;20113;-62
2021/10/07 01:38:52;;;;;;;;;;;;;;;7.27;74.69;102300.41;1929197;73;20110;-62
2021/10/07 01:41:20;;;;;;;;;;;;;;;7.27;74.66;102301.72;1929271;74;20196;-61
2021/10/07 01:43:48;;;;;;;;;;;;;;;7.27;74.79;102300.41;1929207;74;20157;-62
2021/10/07 01:46:16;;;;;;;;;;;;;;;7.27;74.69;102302.17;1929387;74;20110;-61
2021/10/07 01:48:43;;;;;;;;;;;;;;;7.27;74.65;102304.79;1929263;74;20110;-62
2021/10/07 01:51:11;;;;;;;;;;;;;;;7.25;74.67;102302.16;1929192;74;20107;-62
2021/10/07 01:53:39;;;;;;;;;;;;;;;7.27;74.90;102303.48;1929297;74;20106;-62
2021/10/07 01:56:07;;;;;;;;;;;;;;;7.26;74.90;102304.34;1929294;74;20114;-61
2021/10/07 01:58:35;;;;;;;;;;;;;;;7.25;74.92;102304.78;1929243;74;20118;-61
2021/10/07 02:01:03;;;;;;;;;;;;;;;7.24;74.90;102304.33;1929287;74;20114;-62
2021/10/07 02:03:31;;;;;;;;;;;;;;;7.24;75.03;102306.09;1929260;74;20149;-61
2021/10/07 02:05:59;;;;;;;;;;;;;;;7.23;75.08;102303.91;1929148;74;20122;-62
2021/10/07 02:08:26;;;;;;;;;;;;;;;7.23;75.18;102302.61;1929354;74;20118;-62
2021/10/07 02:10:54;;;;;;;;;;;;;;;7.23;75.12;102305.64;1929406;74;20161;-62
2021/10/07 02:13:22;;;;;;;;;;;;;;;7.22;75.11;102306.08;1929395;74;20118;-62
2021/10/07 02:15:50;;;;;;;;;;;;;;;7.23;75.09;102302.61;1929390;74;20114;-62
2021/10/07 02:18:18;;;;;;;;;;;;;;;7.22;75.06;102307.39;1929320;74;20145;-62
2021/10/07 02:20:45;;;;;;;;;;;;;;;7.21;75.15;102308.28;1929505;74;20102;-62
2021/10/07 02:23:13;;;;;;;;;;;;;;;7.21;75.08;102310.01;1929418;74;20106;-61
2021/10/07 02:25:41;;;;;;;;;;;;;;;7.22;75.17;102307.39;1929390;74;20196;-62
2021/10/07 02:28:09;;;;;;;;;;;;;;;7.21;75.07;102305.66;1929368;74;20157;-61
2021/10/07 02:30:37;;;;;;;;;;;;;;;7.21;75.13;102308.28;1929371;74;20113;-61
2021/10/07 02:33:05;;;;;;;;;;;;;;;7.23;75.14;102310.88;1929323;74;20181;-62
2021/10/07 02:35:33;;;;;;;;;;;;;;;7.21;75.22;102310.91;1929341;74;20144;-62
2021/10/07 02:38:01;;;;;;;;;;;;;;;7.22;75.20;102313.08;1929385;74;20122;-62
2021/10/07 02:40:29;;;;;;;;;;;;;;;7.21;75.21;102321.38;1929394;74;20114;-62
2021/10/07 02:42:57;;;;;;;;;;;;;;;7.20;75.13;102313.08;1929346;74;20145;-62
2021/10/07 02:45:25;;;;;;;;;;;;;;;7.19;75.14;102311.31;1929670;73;20115;-61
2021/10/07 02:47:53;;;;;;;;;;;;;;;7.19;75.18;102317.86;1930361;74;20104;-64
2021/10/07 02:50:22;;;;;;;;;;;;;;;7.19;75.16;102320.92;1930333;74;20159;-62
2021/10/07 02:52:49;;;;;;;;;;;;;;;7.19;75.12;102319.62;1930553;74;20124;-63
2021/10/07 02:55:17;;;;;;;;;;;;;;;7.18;75.10;102316.13;1930367;74;20142;-65
2021/10/07 02:57:46;;;;;;;;;;;;;;;7.18;75.26;102316.58;1930355;74;20214;-65
2021/10/07 03:00:17;;;;;;;;;;;;;;;7.17;75.12;102328.78;1930571;74;20402;-64
2021/10/07 03:02:44;;;;;;;;;;;;;;;7.17;75.20;102318.30;1930333;74;20100;-64
2021/10/07 03:05:13;;;;;;;;;;;;;;;7.16;75.21;102324.43;1930402;74;20147;-65
2021/10/07 03:07:41;;;;;;;;;;;;;;;7.14;75.17;102332.28;1930490;74;20416;-64
2021/10/07 03:10:10;;;;;;;;;;;;;;;7.15;75.17;102328.77;1930366;74;20116;-64
2021/10/07 03:12:37;;;;;;;;;;;;;;;7.14;75.24;102332.73;1930234;74;20123;-65
2021/10/07 03:15:06;;;;;;;;;;;;;;;7.15;75.20;102335.77;1930370;74;20146;-64
2021/10/07 03:17:33;;;;;;;;;;;;;;;7.14;75.19;102332.73;1930459;74;20142;-63
2021/10/07 03:20:01;;;;;;;;;;;;;;;7.13;75.15;102330.52;1930343;74;20151;-64
2021/10/07 03:22:29;;;;;;;;;;;;;;;7.13;75.23;102332.28;1930334;74;20138;-63
2021/10/07 03:24:57;;;;;;;;;;;;;;;7.12;75.20;102324.00;1930302;74;20147;-64
2021/10/07 03:27:25;;;;;;;;;;;;;;;7.11;75.18;102323.11;1930285;74;20108;-64
2021/10/07 03:29:53;;;;;;;;;;;;;;;7.12;75.21;102325.31;1930326;74;20123;-64
2021/10/07 03:32:21;;;;;;;;;;;;;;;7.12;75.30;102326.62;1930338;73;20167;-63
2021/10/07 03:34:49;;;;;;;;;;;;;;;7.11;75.37;102321.80;1930372;74;20182;-62
2021/10/07 03:37:17;;;;;;;;;;;;;;;7.09;75.29;102323.98;1930472;74;20119;-64
2021/10/07 03:39:45;;;;;;;;;;;;;;;7.10;75.43;102324.41;1930170;74;20104;-62
2021/10/07 03:42:13;;;;;;;;;;;;;;;7.09;75.42;102329.22;1930337;74;20151;-63
2021/10/07 03:44:41;;;;;;;;;;;;;;;7.09;75.43;102331.84;1930189;74;20127;-63
2021/10/07 03:47:09;;;;;;;;;;;;;;;7.08;75.42;102326.16;1929373;74;20162;-64
2021/10/07 03:49:37;;;;;;;;;;;;;;;7.06;75.47;102323.97;1929358;74;20114;-63
2021/10/07 03:52:05;;;;;;;;;;;;;;;7.08;75.52;102324.84;1929278;73;20141;-63
2021/10/07 03:54:33;;;;;;;;;;;;;;;7.07;75.48;102325.73;1929427;73;20235;-62
2021/10/07 03:57:01;;;;;;;;;;;;;;;7.07;75.54;102328.35;1929386;74;20158;-63
2021/10/07 03:59:29;;;;;;;;;;;;;;;7.07;75.57;102333.59;1929292;74;20114;-63
2021/10/07 04:01:57;;;;;;;;;;;;;;;7.06;75.62;102337.07;1929320;74;20145;-63
2021/10/07 04:04:24;;;;;;;;;;;;;;;7.04;75.53;102328.34;1929466;74;20196;-65
2021/10/07 04:06:52;;;;;;;;;;;;;;;7.06;75.55;102334.45;1929262;74;20141;-65
2021/10/07 04:09:20;;;;;;;;;;;;;;;7.05;75.63;102332.27;1929466;74;20098;-65
2021/10/07 04:11:48;;;;;;;;;;;;;;;7.07;75.61;102336.21;1929352;74;20164;-65
2021/10/07 04:14:16;;;;;;;;;;;;;;;7.05;75.58;102336.65;1929383;74;20145;-65
2021/10/07 04:16:44;;;;;;;;;;;;;;;7.06;75.61;102331.83;1929373;74;20115;-65
2021/10/07 04:19:13;;;;;;;;;;;;;;;7.07;75.59;102334.45;1929328;74;20136;-66
2021/10/07 04:21:40;;;;;;;;;;;;;;;7.07;75.63;102338.83;1929371;74;20192;-64
2021/10/07 04:24:08;;;;;;;;;;;;;;;7.08;75.58;102334.91;1929351;74;20110;-64
2021/10/07 04:26:36;;;;;;;;;;;;;;;7.07;75.64;102329.22;1929376;74;20142;-64
2021/10/07 04:29:04;;;;;;;;;;;;;;;7.06;75.58;102332.70;1929387;74;20144;-64
2021/10/07 04:31:32;;;;;;;;;;;;;;;7.08;75.56;102328.77;1929323;74;20191;-66
2021/10/07 04:34:00;;;;;;;;;;;;;;;7.07;75.58;102329.66;1929264;74;20114;-65
2021/10/07 04:36:28;;;;;;;;;;;;;;;7.08;75.47;102340.56;1929360;74;20148;-65
2021/10/07 04:38:56;;;;;;;;;;;;;;;7.08;75.44;102337.53;1929342;74;20137;-65
2021/10/07 04:41:24;;;;;;;;;;;;;;;7.09;75.56;102341.02;1929333;74;20118;-64
2021/10/07 04:43:51;;;;;;;;;;;;;;;7.10;75.53;102341.02;1929336;74;20161;-65
2021/10/07 04:46:22;;;;;;;;;;;;;;;7.10;75.54;102341.02;1929686;73;20154;-65
2021/10/07 04:48:49;;;;;;;;;;;;;;;7.10;75.47;102342.33;1930262;73;20217;-65
2021/10/07 04:51:17;;;;;;;;;;;;;;;7.09;75.47;102345.80;1930270;74;20116;-64
2021/10/07 04:53:44;;;;;;;;;;;;;;;7.12;75.52;102339.72;1930278;74;20112;-65
2021/10/07 04:56:12;;;;;;;;;;;;;;;7.12;75.50;102344.95;1930320;74;20147;-64
2021/10/07 04:58:40;;;;;;;;;;;;;;;7.13;75.47;102350.61;1930354;74;20112;-65
2021/10/07 05:01:08;;;;;;;;;;;;;;;7.13;75.48;102346.24;1930233;74;20103;-65
2021/10/07 05:03:35;;;;;;;;;;;;;;;7.14;75.49;102343.20;1930311;74;20112;-64
2021/10/07 05:06:03;;;;;;;;;;;;;;;7.15;75.51;102348.86;1930325;74;20115;-64
2021/10/07 05:08:31;;;;;;;;;;;;;;;7.16;75.52;102348.01;1930329;74;20143;-65
2021/10/07 05:10:58;;;;;;;;;;;;;;;7.19;75.58;102350.61;1930590;74;20159;-64
2021/10/07 05:13:26;;;;;;;;;;;;;;;7.19;75.58;102353.23;1930215;74;20143;-65
2021/10/07 05:15:54;;;;;;;;;;;;;;;7.21;75.67;102354.13;1930401;73;20233;-64
2021/10/07 05:18:22;;;;;;;;;;;;;;;7.22;75.59;102351.94;1930321;74;20190;-64
2021/10/07 05:20:51;;;;;;;;;;;;;;;7.24;75.65;102354.11;1930424;74;20120;-64
2021/10/07 05:23:18;;;;;;;;;;;;;;;7.26;75.65;102351.50;1930274;74;20142;-65
2021/10/07 05:25:47;;;;;;;;;;;;;;;7.26;75.59;102356.30;1930319;74;20116;-65
2021/10/07 05:28:15;;;;;;;;;;;;;;;7.28;75.76;102357.16;1930471;74;20377;-65
2021/10/07 05:30:43;;;;;;;;;;;;;;;7.30;75.75;102359.79;1930301;73;20150;-65
2021/10/07 05:33:11;;;;;;;;;;;;;;;7.31;75.78;102357.18;1930268;74;20138;-66
2021/10/07 05:35:39;;;;;;;;;;;;;;;7.34;75.75;102362.43;1930285;74;20198;-65
2021/10/07 05:38:07;;;;;;;;;;;;;;;7.36;75.75;102361.13;1930295;74;20111;-65
2021/10/07 05:40:35;;;;;;;;;;;;;;;7.36;75.69;102365.05;1930250;74;20116;-65
2021/10/07 05:43:03;;;;;;;;;;;;;;;7.38;75.64;102368.96;1930304;74;20167;-64
2021/10/07 05:45:31;;;;;;;;;;;;;;;7.41;75.75;102363.73;1930334;74;20112;-64
2021/10/07 05:47:59;;;;;;;;;;;;;;;7.42;75.78;102361.56;1929451;73;20148;-64
2021/10/07 05:50:27;;;;;;;;;;;;;;;7.43;75.76;102364.19;1929315;74;20118;-64
2021/10/07 05:52:55;;;;;;;;;;;;;;;7.46;75.71;102364.16;1929298;74;20094;-64
2021/10/07 05:55:23;;;;;;;;;;;;;;;7.50;75.74;102372.45;1929212;74;20122;-65
2021/10/07 05:57:50;;;;;;;;;;;;;;;7.52;75.72;102366.81;1929435;74;20098;-64
2021/10/07 06:00:20;;;;;;;;;;;;;;;7.56;75.69;102370.72;1929280;74;20118;-64
2021/10/07 06:02:47;;;;;;;;;;;;;;;7.60;75.80;102371.14;1929273;74;20110;-64
2021/10/07 06:05:16;;;;;;;;;;;;;;;7.61;75.63;102370.28;1929290;74;20191;-64
2021/10/07 06:07:43;;;;;;;;;;;;;;;7.63;75.50;102370.70;1929229;74;20106;-65
2021/10/07 06:10:14;;;;;;;;;;;;;;;7.64;75.47;102363.30;1929285;74;20140;-64
2021/10/07 06:12:42;;;;;;;;;;;;;;;7.66;75.42;102366.78;1929445;74;20114;-64
2021/10/07 06:15:10;;;;;;;;;;;;;;;7.69;75.34;102372.03;1929430;74;20427;-64
2021/10/07 06:17:38;;;;;;;;;;;;;;;7.73;75.43;102372.46;1929320;74;20106;-64
2021/10/07 06:20:19;;;;;;;;;;;;;;;7.76;75.25;102370.27;1929317;74;20114;-65
2021/10/07 06:22:36;;;;;;;;;;;;;;;7.79;75.15;102368.09;1926326;74;20224;-64
2021/10/07 06:25:05;;;;;;;;;;;;;;;7.82;75.09;102369.37;1929244;74;20142;-64
2021/10/07 06:27:33;;;;;;;;;;;;;;;7.84;74.90;102363.27;1929273;74;20161;-64
2021/10/07 06:30:01;;;;;;;;;;;;;;;7.88;74.85;102374.63;1929288;74;20106;-64
2021/10/07 06:32:29;;;;;;;;;;;;;;;7.88;74.57;102373.32;1929241;74;20106;-64
2021/10/07 06:34:57;;;;;;;;;;;;;;;7.89;74.60;102380.30;1929214;74;20114;-64
2021/10/07 06:37:25;;;;;;;;;;;;;;;7.92;74.68;102378.98;1929292;74;20173;-64
2021/10/07 06:39:52;;;;;;;;;;;;;;;7.95;74.70;102380.30;1929278;74;20157;-64
2021/10/07 06:42:20;;;;;;;;;;;;;;;7.96;74.63;102385.97;1929305;74;20118;-64
2021/10/07 06:44:48;;;;;;;;;;;;;;;7.99;74.53;102392.53;1929298;74;20114;-64
2021/10/07 06:47:16;;;;;;;;;;;;;;;8.01;74.58;102385.53;1929081;74;20152;-65
2021/10/07 06:49:44;;;;;;;;;;;;;;;8.04;74.54;102388.16;1929231;74;20102;-64
2021/10/07 06:52:12;;;;;;;;;;;;;;;8.08;74.43;102385.95;1929252;74;20153;-64
2021/10/07 06:54:40;;;;;;;;;;;;;;;8.12;74.41;102399.49;1929268;74;20105;-64
2021/10/07 06:57:08;;;;;;;;;;;;;;;8.15;74.01;102391.17;1929354;74;20118;-64
2021/10/07 06:59:36;;;;;;;;;;;;;;;8.17;73.97;102387.69;1929527;74;20106;-64
2021/10/07 07:02:04;;;;;;;;;;;;;;;8.20;73.64;102385.48;1929304;74;20232;-64
2021/10/07 07:04:32;;;;;;;;;;;;;;;8.25;73.73;102387.22;1929410;74;20102;-64
2021/10/07 07:06:59;;;;;;;;;;;;;;;8.30;73.65;102384.14;1929417;74;20118;-64
2021/10/07 07:09:27;;;;;;;;;;;;;;;8.38;73.70;102385.42;1929408;74;20110;-64
2021/10/07 07:11:55;;;;;;;;;;;;;;;8.44;73.47;102393.30;1929424;74;20118;-64
2021/10/07 07:14:23;;;;;;;;;;;;;;;8.47;73.30;102388.50;1929290;74;20161;-65
2021/10/07 07:16:51;;;;;;;;;;;;;;;8.52;73.14;102395.02;1929407;74;20144;-64
2021/10/07 07:19:18;;;;;;;;;;;;;;;8.53;72.51;102392.84;1929404;74;20114;-65
2021/10/07 07:21:46;;;;;;;;;;;;;;;8.52;72.23;102397.23;1929407;74;20118;-65
2021/10/07 07:24:14;;;;;;;;;;;;;;;8.53;72.36;102397.65;1929514;74;20153;-65
2021/10/07 07:26:42;;;;;;;;;;;;;;;8.52;71.62;102398.97;1929396;74;20118;-64
2021/10/07 07:29:10;;;;;;;;;;;;;;;8.47;71.97;102399.00;1929535;74;20193;-64
2021/10/07 07:31:38;;;;;;;;;;;;;;;8.49;72.11;102398.10;1929405;74;20118;-64
2021/10/07 07:34:05;;;;;;;;;;;;;;;8.51;72.01;102395.47;1929383;74;20114;-64
2021/10/07 07:36:34;;;;;;;;;;;;;;;8.60;72.06;102395.88;1929447;74;20165;-64
2021/10/07 07:39:01;;;;;;;;;;;;;;;8.65;71.62;102387.52;1929544;73;20148;-64
2021/10/07 07:41:30;;;;;;;;;;;;;;;8.69;71.20;102401.09;1929281;74;20106;-64
2021/10/07 07:43:58;;;;;;;;;;;;;;;8.71;71.23;102388.83;1929403;73;20152;-63
2021/10/07 07:46:26;;;;;;;;;;;;;;;8.77;71.12;102387.92;1929390;74;20114;-64
2021/10/07 07:48:54;;;;;;;;;;;;;;;8.79;70.66;102389.65;1930070;73;20146;-64
2021/10/07 07:51:22;;;;;;;;;;;;;;;8.80;70.40;102390.55;1930298;74;20147;-64
2021/10/07 07:53:50;;;;;;;;;;;;;;;8.81;70.29;102393.13;1930279;74;20116;-64
2021/10/07 07:56:18;;;;;;;;;;;;;;;8.84;70.05;102383.94;1930290;73;20142;-64
2021/10/07 07:58:48;;;;;;;;;;;;;;;8.92;70.35;102388.28;1930378;74;20116;-64
2021/10/07 08:01:16;;;;;;;;;;;;;;;9.03;70.32;102382.52;1930434;74;20382;-65
2021/10/07 08:03:44;;;;;;;;;;;;;;;9.12;69.96;102381.14;1930367;74;20163;-64
2021/10/07 08:06:11;;;;;;;;;;;;;;;9.19;69.56;102389.41;1930304;73;20116;-64
2021/10/07 08:08:39;;;;;;;;;;;;;;;9.24;69.26;102391.58;1930153;74;20117;-64
2021/10/07 08:11:07;;;;;;;;;;;;;;;9.28;68.88;102394.61;1930336;74;20108;-64
2021/10/07 08:13:35;;;;;;;;;;;;;;;9.36;68.82;102391.92;1930275;74;20146;-66
2021/10/07 08:16:03;;;;;;;;;;;;;;;9.43;68.00;102394.94;1930353;74;20138;-64
2021/10/07 08:18:31;;;;;;;;;;;;;;;9.49;67.77;102396.64;1930339;74;20142;-64
2021/10/07 08:20:59;;;;;;;;;;;;;;;9.61;67.64;102401.80;1930319;74;20112;-66
2021/10/07 08:23:29;;;;;;;;;;;;;;;9.75;67.34;102396.41;1930302;74;20142;-64
2021/10/07 08:25:57;;;;;;;;;;;;;;;9.79;67.05;102392.89;1930410;73;20143;-64
2021/10/07 08:28:25;;;;;;;;;;;;;;;9.89;67.08;102402.01;1930377;74;20378;-64
2021/10/07 08:30:53;;;;;;;;;;;;;;;9.86;66.75;102397.17;1930385;74;20112;-64
2021/10/07 08:33:20;;;;;;;;;;;;;;;9.84;66.51;102398.09;1930292;74;20112;-64
2021/10/07 08:35:50;;;;;;;;;;;;;;;9.83;66.63;102389.34;1930219;73;20100;-64
2021/10/07 08:38:18;;;;;;;;;;;;;;;9.85;66.45;102398.08;1930320;74;20108;-65
2021/10/07 08:40:46;;;;;;;;;;;;;;;9.88;66.57;102397.17;1930330;74;20143;-65
2021/10/07 08:43:14;;;;;;;;;;;;;;;9.95;66.43;102412.02;1930335;74;20163;-64
2021/10/07 08:45:42;;;;;;;;;;;;;;;10.05;66.10;102416.73;1930361;74;20100;-64
2021/10/07 08:48:10;;;;;;;;;;;;;;;10.16;66.14;102420.16;1927439;74;20120;-64
2021/10/07 08:50:37;;;;;;;;;;;;;;;10.19;65.70;102411.34;1917827;75;20112;-64
2021/10/07 08:53:08;;;;;;;;;;;;;;;10.14;65.55;102405.25;1917770;75;20143;-64
2021/10/07 08:55:35;;;;;;;;;;;;;;;10.11;66.08;102409.25;1917700;74;20143;-64
2021/10/07 08:58:03;;;;;;;;;;;;;;;10.18;66.31;102410.90;1917829;75;20146;-64
2021/10/07 09:00:31;;;;;;;;;;;;;;;10.24;65.83;102411.72;1917820;75;20142;-64
2021/10/07 09:03:01;;;;;;;;;;;;;;;10.22;65.24;102402.11;1917778;75;20172;-64
2021/10/07 09:05:30;;;;;;;;;;;;;;;10.23;65.04;102413.91;1915439;75;20101;-64
2021/10/07 09:08:05;;;;;;;;;;;;;;;10.34;65.35;102417.77;1917943;75;20116;-64
2021/10/07 09:10:34;;;;;;;;;;;;;;;10.37;65.16;102412.48;1917826;75;20385;-64
2021/10/07 09:13:05;;;;;;;;;;;;;;;10.29;64.88;102423.53;1917805;75;20146;-65
2021/10/07 09:15:33;;;;;;;;;;;;;;;10.21;64.87;102413.51;1917789;75;20125;-64
2021/10/07 09:18:05;;;;;;;;;;;;;;;10.18;65.03;102421.42;1917822;75;20112;-64
2021/10/07 09:20:34;;;;;;;;;;;;;;;10.27;65.11;102410.80;1917805;75;20109;-64
2021/10/07 09:23:07;;;;;;;;;;;;;;;10.37;65.39;102415.12;1917785;75;20143;-64
2021/10/07 09:25:54;;;;;;;;;;;;;;;10.48;65.05;102409.73;1917744;75;20140;-66
2021/10/07 09:28:22;;;;;;;;;;;;;;;10.51;64.41;102411.45;1917793;75;20367;-64
2021/10/07 09:30:53;;;;;;;;;;;;;;;10.63;64.17;102411.30;1917818;75;20136;-64
2021/10/07 09:33:29;;;;;;;;;;;;;;;10.74;64.07;102404.13;1917880;75;20139;-64
2021/10/07 09:35:58;;;;;;;;;;;;;;;10.91;63.96;102405.22;1917770;75;20116;-65
2021/10/07 09:38:28;;;;;;;;;;;;;;;11.20;63.84;102408.75;1910177;75;20113;-64
2021/10/07 09:40:57;;;;;;;;;;;;;;;11.50;62.83;102402.57;1916933;75;20112;-65
2021/10/07 09:43:25;;;;;;;;;;;;;;;11.69;61.49;102404.90;1916065;75;20150;-64
2021/10/07 09:45:53;;;;;;;;;;;;;;;11.72;61.22;102398.27;1917807;75;20108;-65
2021/10/07 09:48:22;;;;;;;;;;;;;;;11.74;61.67;102390.73;1917895;74;20117;-65
2021/10/07 09:50:50;;;;;;;;;;;;;;;11.77;61.72;102395.96;1915029;73;20113;-65
2021/10/07 09:53:18;;;;;;;;;;;;;;;11.59;61.64;102393.64;1917757;75;20100;-64
2021/10/07 09:55:48;;;;;;;;;;;;;;;11.43;62.05;102397.42;1917792;75;20229;-64
2021/10/07 09:58:23;;;;;;;;;;;;;;;11.34;62.41;102395.80;1917785;75;20367;-65
2021/10/07 10:00:52;;;;;;;;;;;;;;;11.33;62.74;102395.39;1917815;75;20112;-65
2021/10/07 10:03:21;;;;;;;;;;;;;;;11.30;62.91;102392.80;1917715;75;20116;-64
2021/10/07 10:05:50;;;;;;;;;;;;;;;11.26;63.14;102393.73;1917783;75;20378;-64
2021/10/07 10:08:19;;;;;;;;;;;;;;;11.22;62.68;102397.33;1917744;75;20105;-65
2021/10/07 10:10:49;;;;;;;;;;;;;;;11.17;63.39;102395.61;1917860;75;20146;-65
2021/10/07 10:13:17;;;;;;;;;;;;;;;11.17;63.63;102390.33;1917774;75;20139;-64
2021/10/07 10:15:45;;;;;;;;;;;;;;;11.15;63.73;102392.58;1917630;75;20109;-65
2021/10/07 10:18:14;;;;;;;;;;;;;;;11.17;63.59;102394.74;1917783;75;20108;-64
2021/10/07 10:20:45;;;;;;;;;;;;;;;11.20;63.81;102386.80;1917851;75;20375;-64
2021/10/07 10:23:14;;;;;;;;;;;;;;;11.19;63.54;102396.91;1917866;75;20112;-64
2021/10/07 10:26:00;;;;;;;;;;;;;;;11.15;63.69;102384.22;1917862;75;20116;-64
2021/10/07 10:28:30;;;;;;;;;;;;;;;11.16;63.61;102385.97;1917817;75;20116;-64
2021/10/07 10:31:04;;;;;;;;;;;;;;;11.23;63.73;102381.91;1914692;75;20112;-65
2021/10/07 10:33:34;;;;;;;;;;;;;;;11.30;63.80;102383.56;1917784;75;20116;-64
2021/10/07 10:36:02;;;;;;;;;;;;;;;11.38;63.74;102377.73;1916530;74;20112;-64
2021/10/07 10:38:30;;;;;;;;;;;;;;;11.48;63.58;102379.30;1917777;75;20147;-64
2021/10/07 10:41:08;;;;;;;;;;;;;;;11.61;63.75;102374.70;1917759;75;20113;-64
2021/10/07 10:43:37;;;;;;;;;;;;;;;11.81;63.58;102376.13;1917772;75;20100;-65
2021/10/07 10:46:06;;;;;;;;;;;;;;;11.95;62.41;102377.64;1917795;75;20189;-65
2021/10/07 10:48:44;;;;;;;;;;;;;;;12.01;61.91;102383.68;1917802;75;20140;-65
2021/10/07 10:51:13;;;;;;;;;;;;;;;11.97;62.02;102377.62;1922724;75;20106;-65
2021/10/07 10:53:51;;;;;;;;;;;;;;;11.97;62.61;102389.05;1922904;75;20160;-65
2021/10/07 10:56:19;;;;;;;;;;;;;;;11.97;62.19;102388.18;1922845;75;20122;-65
2021/10/07 10:59:04;;;;;;;;;;;;;;;;;;;;;
2021/10/07 11:01:42;;;;;;;;;;;;;;;12.04;61.91;102375.72;1895946;75;20152;-63
2021/10/07 11:04:10;;;;;;;;;;;;;;;12.12;61.38;102376.45;1901147;75;20112;-62
2021/10/07 11:06:56;;;;;;;;;;;;;;;12.20;61.61;102369.70;1901129;75;20124;-62
2021/10/07 11:09:42;;;;;;;;;;;;;;;12.33;61.16;102376.01;1901173;75;20154;-62
2021/10/07 11:12:11;;;;;;;;;;;;;;;12.44;61.12;102373.61;1901059;75;20123;-62
2021/10/07 11:14:39;;;;;;;;;;;;;;;12.49;61.18;102373.08;1901099;75;20159;-62
2021/10/07 11:17:08;;;;;;;;;;;;;;;12.49;61.06;102375.72;1901115;75;20151;-62
2021/10/07 11:19:36;;;;;;;;;;;;;;;12.48;61.07;102369.53;1901129;75;20456;-62
2021/10/07 11:22:08;;;;;;;;;;;;;;;12.47;61.17;102370.92;1901146;75;20159;-63
2021/10/07 11:24:37;;;;;;;;;;;;;;;12.45;60.58;102366.98;1901030;75;20147;-62
2021/10/07 11:27:05;;;;;;;;;;;;;;;12.36;61.11;102375.95;1898813;75;20141;-63
2021/10/07 11:29:33;;;;;;;;;;;;;;;12.36;61.21;102373.31;1901283;75;20142;-62
2021/10/07 11:32:01;;;;;;;;;;;;;;;12.39;61.17;102368.87;1901120;75;20108;-62
2021/10/07 11:34:29;;;;;;;;;;;;;;;12.42;61.07;102374.96;1901097;75;20112;-62
2021/10/07 11:36:57;;;;;;;;;;;;;;;12.44;61.17;102372.30;1901090;75;20161;-63
2021/10/07 11:39:25;;;;;;;;;;;;;;;12.41;60.80;102377.16;1901115;75;20182;-62
2021/10/07 11:41:53;;;;;;;;;;;;;;;12.35;60.51;102379.48;1901102;75;20120;-62
2021/10/07 11:44:23;;;;;;;;;;;;;;;12.34;60.26;102385.69;1901222;75;20131;-62
2021/10/07 11:46:51;;;;;;;;;;;;;;;12.34;60.67;102377.77;1901140;75;20128;-62
2021/10/07 11:49:19;;;;;;;;;;;;;;;12.32;60.52;102376.03;1901104;75;20104;-62
2021/10/07 11:51:47;;;;;;;;;;;;;;;12.31;60.71;102380.45;1901034;75;20167;-63
2021/10/07 11:54:16;;;;;;;;;;;;;;;12.36;61.13;102381.24;1901009;75;20104;-62
2021/10/07 11:56:44;;;;;;;;;;;;;;;12.42;61.15;102376.73;1901021;75;20199;-62
2021/10/07 11:59:15;;;;;;;;;;;;;;;12.42;60.83;102378.06;1900976;75;20112;-63
2021/10/07 12:01:41;;;;;;;;;;;;;;;12.35;60.29;102379.48;1894680;75;20117;-62
2021/10/07 12:04:09;;;;;;;;;;;;;;;12.30;60.97;102380.05;1894405;76;20120;-63
2021/10/07 12:06:38;;;;;;;;;;;;;;;12.29;61.01;102376.98;1894465;76;20120;-63
2021/10/07 12:09:09;;;;;;;;;;;;;;;12.26;60.81;102377.48;1894471;76;20113;-62
2021/10/07 12:11:36;;;;;;;;;;;;;;;12.27;61.33;102377.47;1894380;76;20118;-62
2021/10/07 12:14:04;;;;;;;;;;;;;;;12.30;61.29;102378.73;1894465;76;20146;-62
2021/10/07 12:16:33;;;;;;;;;;;;;;;12.34;61.26;102378.22;1894566;76;20112;-62
2021/10/07 12:19:01;;;;;;;;;;;;;;;12.33;60.92;102386.58;1893941;75;20153;-62
2021/10/07 12:21:31;;;;;;;;;;;;;;;12.32;60.83;102382.21;1894565;76;20116;-62
2021/10/07 12:24:00;;;;;;;;;;;;;;;12.29;60.77;102367.73;1894435;76;20409;-62
2021/10/07 12:26:29;;;;;;;;;;;;;;;12.29;60.94;102363.77;1894440;76;20203;-62
2021/10/07 12:28:58;;;;;;;;;;;;;;;12.35;61.09;102370.70;1894464;76;20254;-62
2021/10/07 12:31:28;;;;;;;;;;;;;;;12.38;61.52;102363.19;1894394;76;20371;-62
2021/10/07 12:34:00;;;;;;;;;;;;;;;12.40;61.29;102363.56;1894473;76;20153;-62
2021/10/07 12:36:41;;;;;;;;;;;;;;;12.39;61.21;102360.94;1894087;76;20147;-62
2021/10/07 12:39:26;;;;;;;;;;;;;;;12.39;61.03;102364.45;1894420;76;20104;-62
2021/10/07 12:41:57;;;;;;;;;;;;;;;12.38;61.38;102367.14;1894402;76;20366;-65
2021/10/07 12:44:27;;;;;;;;;;;;;;;12.39;61.66;102375.47;1894454;76;20147;-63
2021/10/07 12:46:59;;;;;;;;;;;;;;;12.36;61.31;102362.75;1894456;76;20124;-64
2021/10/07 12:49:37;;;;;;;;;;;;;;;12.36;61.83;102360.11;1894490;76;20152;-63
2021/10/07 12:52:12;;;;;;;;;;;;;;;12.36;61.58;102359.25;1894428;76;20120;-65
2021/10/07 12:54:40;;;;;;;;;;;;;;;12.33;61.40;102354.88;1894133;75;20116;-64
2021/10/07 12:57:08;;;;;;;;;;;;;;;12.32;61.77;102354.48;1894461;76;20108;-64